sensor_id;sensor_type;location;lat;lon;timestamp;P1;durP1;ratioP1;P2;durP2;ratioP2
6642;SDS011;3357;48.050;7.800;2023-04-28T00:01:49;3.17;;;2.00;;
6642;SDS011;3357;48.050;7.800;2023-04-28T00:04:14;4.30;;;2.57;;
6642;SDS011;3357;48.050;7.800;2023-04-28T00:06:39;2.67;;;2.33;;
6642;SDS011;3357;48.050;7.800;2023-04-28T00:09:05;2.80;;;2.57;;
6642;SDS011;3357;48.050;7.800;2023-04-28T00:11:34;4.30;;;2.57;;
6642;SDS011;3357;48.050;7.800;2023-04-28T00:13:59;3.27;;;2.33;;
6642;SDS011;3357;48.050;7.800;2023-04-28T00:16:25;4.10;;;2.43;;
6642;SDS011;3357;48.050;7.800;2023-04-28T00:18:50;6.73;;;2.43;;
6642;SDS011;3357;48.050;7.800;2023-04-28T00:21:15;3.50;;;2.13;;
6642;SDS011;3357;48.050;7.800;2023-04-28T00:23:41;2.30;;;2.00;;
6642;SDS011;3357;48.050;7.800;2023-04-28T00:26:07;2.20;;;2.10;;
6642;SDS011;3357;48.050;7.800;2023-04-28T00:28:32;3.20;;;2.40;;
6642;SDS011;3357;48.050;7.800;2023-04-28T00:30:57;5.80;;;2.90;;
6642;SDS011;3357;48.050;7.800;2023-04-28T00:33:22;3.40;;;2.37;;
6642;SDS011;3357;48.050;7.800;2023-04-28T00:35:48;3.63;;;2.00;;
6642;SDS011;3357;48.050;7.800;2023-04-28T00:38:13;4.23;;;2.87;;
6642;SDS011;3357;48.050;7.800;2023-04-28T00:40:38;3.90;;;2.23;;
6642;SDS011;3357;48.050;7.800;2023-04-28T00:43:04;2.03;;;1.93;;
6642;SDS011;3357;48.050;7.800;2023-04-28T00:45:30;6.73;;;2.00;;
6642;SDS011;3357;48.050;7.800;2023-04-28T00:47:55;2.50;;;2.30;;
6642;SDS011;3357;48.050;7.800;2023-04-28T00:50:21;3.83;;;2.50;;
6642;SDS011;3357;48.050;7.800;2023-04-28T00:52:47;3.53;;;2.20;;
6642;SDS011;3357;48.050;7.800;2023-04-28T00:55:13;2.67;;;2.43;;
6642;SDS011;3357;48.050;7.800;2023-04-28T00:57:40;5.20;;;2.60;;
6642;SDS011;3357;48.050;7.800;2023-04-28T01:00:05;1.80;;;1.70;;
6642;SDS011;3357;48.050;7.800;2023-04-28T01:02:31;3.07;;;2.20;;
6642;SDS011;3357;48.050;7.800;2023-04-28T01:04:57;3.50;;;2.40;;
6642;SDS011;3357;48.050;7.800;2023-04-28T01:07:23;2.70;;;2.50;;
6642;SDS011;3357;48.050;7.800;2023-04-28T01:09:48;2.87;;;2.40;;
6642;SDS011;3357;48.050;7.800;2023-04-28T01:12:13;2.20;;;2.10;;
6642;SDS011;3357;48.050;7.800;2023-04-28T01:14:39;2.60;;;2.40;;
6642;SDS011;3357;48.050;7.800;2023-04-28T01:17:04;2.60;;;1.90;;
6642;SDS011;3357;48.050;7.800;2023-04-28T01:19:29;2.63;;;2.40;;
6642;SDS011;3357;48.050;7.800;2023-04-28T01:21:54;2.47;;;2.27;;
6642;SDS011;3357;48.050;7.800;2023-04-28T01:24:20;2.70;;;2.00;;
6642;SDS011;3357;48.050;7.800;2023-04-28T01:26:45;3.40;;;2.50;;
6642;SDS011;3357;48.050;7.800;2023-04-28T01:29:10;2.40;;;2.00;;
6642;SDS011;3357;48.050;7.800;2023-04-28T01:31:36;2.20;;;2.10;;
6642;SDS011;3357;48.050;7.800;2023-04-28T01:34:01;2.30;;;2.20;;
6642;SDS011;3357;48.050;7.800;2023-04-28T01:36:26;5.60;;;2.60;;
6642;SDS011;3357;48.050;7.800;2023-04-28T01:38:53;4.60;;;2.33;;
6642;SDS011;3357;48.050;7.800;2023-04-28T01:41:18;3.70;;;2.20;;
6642;SDS011;3357;48.050;7.800;2023-04-28T01:43:44;3.17;;;2.23;;
6642;SDS011;3357;48.050;7.800;2023-04-28T01:46:09;5.13;;;2.33;;
6642;SDS011;3357;48.050;7.800;2023-04-28T01:48:35;3.97;;;2.60;;
6642;SDS011;3357;48.050;7.800;2023-04-28T01:51:00;2.73;;;2.30;;
6642;SDS011;3357;48.050;7.800;2023-04-28T01:53:25;7.07;;;2.57;;
6642;SDS011;3357;48.050;7.800;2023-04-28T01:55:51;2.90;;;2.60;;
6642;SDS011;3357;48.050;7.800;2023-04-28T01:58:20;3.07;;;2.50;;
6642;SDS011;3357;48.050;7.800;2023-04-28T02:00:46;3.30;;;2.63;;
6642;SDS011;3357;48.050;7.800;2023-04-28T02:03:11;3.87;;;2.77;;
6642;SDS011;3357;48.050;7.800;2023-04-28T02:05:37;7.07;;;3.30;;
6642;SDS011;3357;48.050;7.800;2023-04-28T02:08:02;5.83;;;3.70;;
6642;SDS011;3357;48.050;7.800;2023-04-28T02:10:27;7.10;;;4.27;;
6642;SDS011;3357;48.050;7.800;2023-04-28T02:12:52;6.90;;;4.13;;
6642;SDS011;3357;48.050;7.800;2023-04-28T02:15:18;6.43;;;3.50;;
6642;SDS011;3357;48.050;7.800;2023-04-28T02:17:43;4.53;;;4.10;;
6642;SDS011;3357;48.050;7.800;2023-04-28T02:20:08;5.47;;;4.43;;
6642;SDS011;3357;48.050;7.800;2023-04-28T02:22:34;7.20;;;3.80;;
6642;SDS011;3357;48.050;7.800;2023-04-28T02:24:59;6.13;;;3.87;;
6642;SDS011;3357;48.050;7.800;2023-04-28T02:27:25;3.43;;;2.60;;
6642;SDS011;3357;48.050;7.800;2023-04-28T02:29:50;3.60;;;2.83;;
6642;SDS011;3357;48.050;7.800;2023-04-28T02:32:16;5.13;;;2.70;;
6642;SDS011;3357;48.050;7.800;2023-04-28T02:34:41;6.13;;;3.00;;
6642;SDS011;3357;48.050;7.800;2023-04-28T02:37:07;4.67;;;3.40;;
6642;SDS011;3357;48.050;7.800;2023-04-28T02:39:32;5.50;;;3.97;;
6642;SDS011;3357;48.050;7.800;2023-04-28T02:41:57;5.50;;;3.60;;
6642;SDS011;3357;48.050;7.800;2023-04-28T02:44:22;6.23;;;3.93;;
6642;SDS011;3357;48.050;7.800;2023-04-28T02:46:48;4.67;;;3.93;;
6642;SDS011;3357;48.050;7.800;2023-04-28T02:49:13;4.10;;;3.67;;
6642;SDS011;3357;48.050;7.800;2023-04-28T02:51:39;4.50;;;3.47;;
6642;SDS011;3357;48.050;7.800;2023-04-28T02:54:04;3.97;;;3.67;;
6642;SDS011;3357;48.050;7.800;2023-04-28T02:56:29;6.53;;;4.20;;
6642;SDS011;3357;48.050;7.800;2023-04-28T02:58:55;8.20;;;4.50;;
6642;SDS011;3357;48.050;7.800;2023-04-28T03:01:21;5.90;;;3.77;;
6642;SDS011;3357;48.050;7.800;2023-04-28T03:03:46;4.70;;;3.87;;
6642;SDS011;3357;48.050;7.800;2023-04-28T03:06:11;4.60;;;4.13;;
6642;SDS011;3357;48.050;7.800;2023-04-28T03:08:36;5.07;;;4.00;;
6642;SDS011;3357;48.050;7.800;2023-04-28T03:11:02;7.20;;;4.17;;
6642;SDS011;3357;48.050;7.800;2023-04-28T03:13:27;6.30;;;4.60;;
6642;SDS011;3357;48.050;7.800;2023-04-28T03:15:53;7.53;;;4.80;;
6642;SDS011;3357;48.050;7.800;2023-04-28T03:18:19;7.50;;;4.03;;
6642;SDS011;3357;48.050;7.800;2023-04-28T03:20:44;9.83;;;4.30;;
6642;SDS011;3357;48.050;7.800;2023-04-28T03:23:10;6.20;;;4.37;;
6642;SDS011;3357;48.050;7.800;2023-04-28T03:25:35;7.03;;;3.30;;
6642;SDS011;3357;48.050;7.800;2023-04-28T03:28:00;5.73;;;3.17;;
6642;SDS011;3357;48.050;7.800;2023-04-28T03:30:26;4.60;;;2.60;;
6642;SDS011;3357;48.050;7.800;2023-04-28T03:32:51;4.63;;;2.33;;
6642;SDS011;3357;48.050;7.800;2023-04-28T03:35:17;3.40;;;2.80;;
6642;SDS011;3357;48.050;7.800;2023-04-28T03:37:42;2.70;;;2.50;;
6642;SDS011;3357;48.050;7.800;2023-04-28T03:40:07;4.37;;;2.30;;
6642;SDS011;3357;48.050;7.800;2023-04-28T03:42:33;3.43;;;2.80;;
6642;SDS011;3357;48.050;7.800;2023-04-28T03:44:58;2.60;;;2.40;;
6642;SDS011;3357;48.050;7.800;2023-04-28T03:47:23;3.43;;;2.73;;
6642;SDS011;3357;48.050;7.800;2023-04-28T03:49:49;3.03;;;2.50;;
6642;SDS011;3357;48.050;7.800;2023-04-28T03:52:14;7.23;;;2.37;;
6642;SDS011;3357;48.050;7.800;2023-04-28T03:54:39;8.53;;;2.50;;
6642;SDS011;3357;48.050;7.800;2023-04-28T03:57:05;2.97;;;2.60;;
6642;SDS011;3357;48.050;7.800;2023-04-28T03:59:30;3.97;;;1.90;;
6642;SDS011;3357;48.050;7.800;2023-04-28T04:01:56;2.57;;;2.10;;
6642;SDS011;3357;48.050;7.800;2023-04-28T04:04:21;2.50;;;1.80;;
6642;SDS011;3357;48.050;7.800;2023-04-28T04:06:47;8.73;;;2.47;;
6642;SDS011;3357;48.050;7.800;2023-04-28T04:09:12;1.93;;;1.83;;
6642;SDS011;3357;48.050;7.800;2023-04-28T04:11:37;2.83;;;2.20;;
6642;SDS011;3357;48.050;7.800;2023-04-28T04:14:02;4.70;;;2.33;;
6642;SDS011;3357;48.050;7.800;2023-04-28T04:16:28;2.53;;;2.33;;
6642;SDS011;3357;48.050;7.800;2023-04-28T04:18:53;3.03;;;2.30;;
6642;SDS011;3357;48.050;7.800;2023-04-28T04:21:19;3.57;;;2.57;;
6642;SDS011;3357;48.050;7.800;2023-04-28T04:23:44;2.70;;;2.50;;
6642;SDS011;3357;48.050;7.800;2023-04-28T04:26:09;2.90;;;2.13;;
6642;SDS011;3357;48.050;7.800;2023-04-28T04:28:35;3.23;;;2.93;;
6642;SDS011;3357;48.050;7.800;2023-04-28T04:31:00;2.80;;;2.20;;
6642;SDS011;3357;48.050;7.800;2023-04-28T04:33:26;6.10;;;2.50;;
6642;SDS011;3357;48.050;7.800;2023-04-28T04:35:52;4.60;;;2.50;;
6642;SDS011;3357;48.050;7.800;2023-04-28T04:38:18;3.03;;;2.20;;
6642;SDS011;3357;48.050;7.800;2023-04-28T04:40:43;4.47;;;2.30;;
6642;SDS011;3357;48.050;7.800;2023-04-28T04:43:08;5.20;;;2.77;;
6642;SDS011;3357;48.050;7.800;2023-04-28T04:45:34;5.57;;;2.40;;
6642;SDS011;3357;48.050;7.800;2023-04-28T04:47:59;2.97;;;2.77;;
6642;SDS011;3357;48.050;7.800;2023-04-28T04:50:24;3.33;;;2.87;;
6642;SDS011;3357;48.050;7.800;2023-04-28T04:52:50;3.67;;;2.50;;
6642;SDS011;3357;48.050;7.800;2023-04-28T04:55:15;3.23;;;2.67;;
6642;SDS011;3357;48.050;7.800;2023-04-28T04:57:40;2.80;;;2.13;;
6642;SDS011;3357;48.050;7.800;2023-04-28T05:00:06;2.57;;;2.37;;
6642;SDS011;3357;48.050;7.800;2023-04-28T05:02:31;6.00;;;1.83;;
6642;SDS011;3357;48.050;7.800;2023-04-28T05:04:57;2.47;;;2.27;;
6642;SDS011;3357;48.050;7.800;2023-04-28T05:07:22;3.00;;;2.30;;
6642;SDS011;3357;48.050;7.800;2023-04-28T05:09:48;2.37;;;2.23;;
6642;SDS011;3357;48.050;7.800;2023-04-28T05:12:14;9.70;;;1.90;;
6642;SDS011;3357;48.050;7.800;2023-04-28T05:14:39;2.97;;;2.20;;
6642;SDS011;3357;48.050;7.800;2023-04-28T05:17:04;2.33;;;1.93;;
6642;SDS011;3357;48.050;7.800;2023-04-28T05:19:30;2.20;;;2.03;;
6642;SDS011;3357;48.050;7.800;2023-04-28T05:21:55;6.87;;;2.20;;
6642;SDS011;3357;48.050;7.800;2023-04-28T05:24:20;6.20;;;2.17;;
6642;SDS011;3357;48.050;7.800;2023-04-28T05:26:47;2.30;;;1.90;;
6642;SDS011;3357;48.050;7.800;2023-04-28T05:29:14;1.70;;;1.60;;
6642;SDS011;3357;48.050;7.800;2023-04-28T05:31:39;5.73;;;2.00;;
6642;SDS011;3357;48.050;7.800;2023-04-28T05:34:04;3.33;;;2.17;;
6642;SDS011;3357;48.050;7.800;2023-04-28T05:36:30;2.73;;;2.17;;
6642;SDS011;3357;48.050;7.800;2023-04-28T05:38:55;2.40;;;2.20;;
6642;SDS011;3357;48.050;7.800;2023-04-28T05:41:21;2.40;;;1.80;;
6642;SDS011;3357;48.050;7.800;2023-04-28T05:43:46;2.40;;;2.10;;
6642;SDS011;3357;48.050;7.800;2023-04-28T05:46:14;2.80;;;2.30;;
6642;SDS011;3357;48.050;7.800;2023-04-28T05:48:40;2.70;;;2.33;;
6642;SDS011;3357;48.050;7.800;2023-04-28T05:51:05;4.27;;;2.20;;
6642;SDS011;3357;48.050;7.800;2023-04-28T05:53:30;2.30;;;2.10;;
6642;SDS011;3357;48.050;7.800;2023-04-28T05:55:56;2.10;;;1.90;;
6642;SDS011;3357;48.050;7.800;2023-04-28T05:58:21;2.50;;;2.30;;
6642;SDS011;3357;48.050;7.800;2023-04-28T06:00:46;2.97;;;2.67;;
6642;SDS011;3357;48.050;7.800;2023-04-28T06:03:11;2.57;;;2.40;;
6642;SDS011;3357;48.050;7.800;2023-04-28T06:05:38;2.50;;;2.40;;
6642;SDS011;3357;48.050;7.800;2023-04-28T06:08:04;6.20;;;2.50;;
6642;SDS011;3357;48.050;7.800;2023-04-28T06:10:29;2.80;;;2.57;;
6642;SDS011;3357;48.050;7.800;2023-04-28T06:12:54;3.43;;;2.50;;
6642;SDS011;3357;48.050;7.800;2023-04-28T06:15:20;6.73;;;3.10;;
6642;SDS011;3357;48.050;7.800;2023-04-28T06:17:46;2.63;;;2.43;;
6642;SDS011;3357;48.050;7.800;2023-04-28T06:20:11;4.13;;;3.40;;
6642;SDS011;3357;48.050;7.800;2023-04-28T06:22:37;4.30;;;2.33;;
6642;SDS011;3357;48.050;7.800;2023-04-28T06:25:03;3.20;;;2.70;;
6642;SDS011;3357;48.050;7.800;2023-04-28T06:27:29;3.30;;;2.70;;
6642;SDS011;3357;48.050;7.800;2023-04-28T06:29:56;4.50;;;3.03;;
6642;SDS011;3357;48.050;7.800;2023-04-28T06:32:22;3.57;;;2.20;;
6642;SDS011;3357;48.050;7.800;2023-04-28T06:34:47;3.80;;;3.50;;
6642;SDS011;3357;48.050;7.800;2023-04-28T06:37:12;2.93;;;2.70;;
6642;SDS011;3357;48.050;7.800;2023-04-28T06:39:37;2.90;;;2.70;;
6642;SDS011;3357;48.050;7.800;2023-04-28T06:42:03;3.93;;;2.97;;
6642;SDS011;3357;48.050;7.800;2023-04-28T06:44:28;4.73;;;3.40;;
6642;SDS011;3357;48.050;7.800;2023-04-28T06:46:53;3.20;;;2.90;;
6642;SDS011;3357;48.050;7.800;2023-04-28T06:49:18;3.27;;;2.93;;
6642;SDS011;3357;48.050;7.800;2023-04-28T06:51:44;5.10;;;3.10;;
6642;SDS011;3357;48.050;7.800;2023-04-28T06:54:09;4.30;;;3.43;;
6642;SDS011;3357;48.050;7.800;2023-04-28T06:56:35;5.80;;;3.70;;
6642;SDS011;3357;48.050;7.800;2023-04-28T06:59:00;4.80;;;3.57;;
6642;SDS011;3357;48.050;7.800;2023-04-28T07:01:27;4.23;;;3.13;;
6642;SDS011;3357;48.050;7.800;2023-04-28T07:03:52;3.47;;;3.20;;
6642;SDS011;3357;48.050;7.800;2023-04-28T07:06:18;3.43;;;3.13;;
6642;SDS011;3357;48.050;7.800;2023-04-28T07:08:44;3.67;;;3.37;;
6642;SDS011;3357;48.050;7.800;2023-04-28T07:11:09;3.77;;;3.43;;
6642;SDS011;3357;48.050;7.800;2023-04-28T07:13:34;4.60;;;3.27;;
6642;SDS011;3357;48.050;7.800;2023-04-28T07:16:00;6.90;;;3.90;;
6642;SDS011;3357;48.050;7.800;2023-04-28T07:18:25;3.80;;;3.50;;
6642;SDS011;3357;48.050;7.800;2023-04-28T07:20:51;5.80;;;3.63;;
6642;SDS011;3357;48.050;7.800;2023-04-28T07:23:16;5.63;;;3.97;;
6642;SDS011;3357;48.050;7.800;2023-04-28T07:25:41;6.70;;;3.63;;
6642;SDS011;3357;48.050;7.800;2023-04-28T07:28:07;6.63;;;3.90;;
6642;SDS011;3357;48.050;7.800;2023-04-28T07:30:32;3.90;;;3.60;;
6642;SDS011;3357;48.050;7.800;2023-04-28T07:32:58;3.80;;;3.43;;
6642;SDS011;3357;48.050;7.800;2023-04-28T07:35:24;5.63;;;3.93;;
6642;SDS011;3357;48.050;7.800;2023-04-28T07:37:49;3.67;;;3.30;;
6642;SDS011;3357;48.050;7.800;2023-04-28T07:40:15;4.87;;;3.03;;
6642;SDS011;3357;48.050;7.800;2023-04-28T07:42:40;4.50;;;3.20;;
6642;SDS011;3357;48.050;7.800;2023-04-28T07:45:06;5.70;;;3.33;;
6642;SDS011;3357;48.050;7.800;2023-04-28T07:47:31;3.90;;;2.67;;
6642;SDS011;3357;48.050;7.800;2023-04-28T07:49:56;3.20;;;3.00;;
6642;SDS011;3357;48.050;7.800;2023-04-28T07:52:24;5.43;;;3.10;;
6642;SDS011;3357;48.050;7.800;2023-04-28T07:54:49;2.73;;;2.53;;
6642;SDS011;3357;48.050;7.800;2023-04-28T07:57:15;3.47;;;2.60;;
6642;SDS011;3357;48.050;7.800;2023-04-28T07:59:40;2.73;;;2.53;;
6642;SDS011;3357;48.050;7.800;2023-04-28T08:02:05;2.70;;;2.50;;
6642;SDS011;3357;48.050;7.800;2023-04-28T08:04:31;4.47;;;2.20;;
6642;SDS011;3357;48.050;7.800;2023-04-28T08:06:58;6.00;;;2.53;;
6642;SDS011;3357;48.050;7.800;2023-04-28T08:09:24;3.27;;;2.47;;
6642;SDS011;3357;48.050;7.800;2023-04-28T08:11:50;2.90;;;2.70;;
6642;SDS011;3357;48.050;7.800;2023-04-28T08:14:15;2.97;;;2.47;;
6642;SDS011;3357;48.050;7.800;2023-04-28T08:16:40;2.87;;;2.40;;
6642;SDS011;3357;48.050;7.800;2023-04-28T08:19:06;3.43;;;2.63;;
6642;SDS011;3357;48.050;7.800;2023-04-28T08:21:31;3.87;;;3.00;;
6642;SDS011;3357;48.050;7.800;2023-04-28T08:23:58;3.43;;;2.10;;
6642;SDS011;3357;48.050;7.800;2023-04-28T08:26:23;2.40;;;1.83;;
6642;SDS011;3357;48.050;7.800;2023-04-28T08:28:49;3.60;;;2.60;;
6642;SDS011;3357;48.050;7.800;2023-04-28T08:31:15;6.50;;;2.23;;
6642;SDS011;3357;48.050;7.800;2023-04-28T08:33:41;3.30;;;2.30;;
6642;SDS011;3357;48.050;7.800;2023-04-28T08:36:08;5.83;;;2.20;;
6642;SDS011;3357;48.050;7.800;2023-04-28T08:38:35;2.63;;;2.43;;
6642;SDS011;3357;48.050;7.800;2023-04-28T08:41:02;2.50;;;2.30;;
6642;SDS011;3357;48.050;7.800;2023-04-28T08:43:28;3.20;;;2.83;;
6642;SDS011;3357;48.050;7.800;2023-04-28T08:45:54;4.50;;;2.80;;
6642;SDS011;3357;48.050;7.800;2023-04-28T08:48:20;3.30;;;2.60;;
6642;SDS011;3357;48.050;7.800;2023-04-28T08:50:52;3.07;;;2.87;;
6642;SDS011;3357;48.050;7.800;2023-04-28T08:53:25;3.33;;;3.03;;
6642;SDS011;3357;48.050;7.800;2023-04-28T08:55:54;3.20;;;2.90;;
6642;SDS011;3357;48.050;7.800;2023-04-28T08:58:21;5.80;;;3.60;;
6642;SDS011;3357;48.050;7.800;2023-04-28T09:00:50;6.50;;;4.00;;
6642;SDS011;3357;48.050;7.800;2023-04-28T09:03:16;3.77;;;3.57;;
6642;SDS011;3357;48.050;7.800;2023-04-28T09:05:42;4.00;;;3.30;;
6642;SDS011;3357;48.050;7.800;2023-04-28T09:08:07;4.10;;;3.23;;
6642;SDS011;3357;48.050;7.800;2023-04-28T09:10:33;3.50;;;3.20;;
6642;SDS011;3357;48.050;7.800;2023-04-28T09:12:58;4.13;;;3.50;;
6642;SDS011;3357;48.050;7.800;2023-04-28T09:15:24;3.63;;;3.23;;
6642;SDS011;3357;48.050;7.800;2023-04-28T09:17:51;3.10;;;2.77;;
6642;SDS011;3357;48.050;7.800;2023-04-28T09:20:23;4.73;;;3.57;;
6642;SDS011;3357;48.050;7.800;2023-04-28T09:22:50;3.93;;;3.10;;
6642;SDS011;3357;48.050;7.800;2023-04-28T09:25:20;4.90;;;3.77;;
6642;SDS011;3357;48.050;7.800;2023-04-28T09:27:46;4.57;;;3.20;;
6642;SDS011;3357;48.050;7.800;2023-04-28T09:30:12;8.40;;;3.53;;
6642;SDS011;3357;48.050;7.800;2023-04-28T09:32:37;3.60;;;3.30;;
6642;SDS011;3357;48.050;7.800;2023-04-28T09:35:03;3.23;;;3.00;;
6642;SDS011;3357;48.050;7.800;2023-04-28T09:37:29;4.77;;;2.97;;
6642;SDS011;3357;48.050;7.800;2023-04-28T09:39:55;3.07;;;2.87;;
6642;SDS011;3357;48.050;7.800;2023-04-28T09:45:01;3.10;;;2.80;;
6642;SDS011;3357;48.050;7.800;2023-04-28T09:47:31;3.40;;;2.53;;
6642;SDS011;3357;48.050;7.800;2023-04-28T09:49:59;2.70;;;2.50;;
6642;SDS011;3357;48.050;7.800;2023-04-28T09:52:26;5.53;;;2.97;;
6642;SDS011;3357;48.050;7.800;2023-04-28T09:54:51;3.20;;;3.00;;
6642;SDS011;3357;48.050;7.800;2023-04-28T09:57:18;3.73;;;3.07;;
6642;SDS011;3357;48.050;7.800;2023-04-28T09:59:48;3.43;;;3.13;;
6642;SDS011;3357;48.050;7.800;2023-04-28T10:02:17;3.40;;;3.10;;
6642;SDS011;3357;48.050;7.800;2023-04-28T10:04:44;3.63;;;2.90;;
6642;SDS011;3357;48.050;7.800;2023-04-28T10:07:10;7.73;;;2.90;;
6642;SDS011;3357;48.050;7.800;2023-04-28T10:09:37;3.60;;;2.90;;
6642;SDS011;3357;48.050;7.800;2023-04-28T10:12:03;3.07;;;2.80;;
6642;SDS011;3357;48.050;7.800;2023-04-28T10:14:29;3.30;;;2.93;;
6642;SDS011;3357;48.050;7.800;2023-04-28T10:16:55;3.77;;;3.30;;
6642;SDS011;3357;48.050;7.800;2023-04-28T10:19:22;3.33;;;3.03;;
6642;SDS011;3357;48.050;7.800;2023-04-28T10:21:52;5.83;;;3.30;;
6642;SDS011;3357;48.050;7.800;2023-04-28T10:24:27;7.00;;;3.20;;
6642;SDS011;3357;48.050;7.800;2023-04-28T10:29:27;3.07;;;2.63;;
6642;SDS011;3357;48.050;7.800;2023-04-28T10:32:13;4.27;;;3.10;;
6642;SDS011;3357;48.050;7.800;2023-04-28T10:34:39;3.10;;;2.57;;
6642;SDS011;3357;48.050;7.800;2023-04-28T10:37:04;3.60;;;2.50;;
6642;SDS011;3357;48.050;7.800;2023-04-28T10:39:30;3.40;;;3.10;;
6642;SDS011;3357;48.050;7.800;2023-04-28T10:41:55;4.77;;;2.40;;
6642;SDS011;3357;48.050;7.800;2023-04-28T10:47:07;2.60;;;2.40;;
6642;SDS011;3357;48.050;7.800;2023-04-28T11:00:39;2.63;;;2.43;;
6642;SDS011;3357;48.050;7.800;2023-04-28T11:03:05;2.37;;;2.23;;
6642;SDS011;3357;48.050;7.800;2023-04-28T11:05:30;2.90;;;2.70;;
6642;SDS011;3357;48.050;7.800;2023-04-28T11:13:39;2.40;;;1.83;;
6642;SDS011;3357;48.050;7.800;2023-04-28T11:16:05;4.63;;;2.50;;
6642;SDS011;3357;48.050;7.800;2023-04-28T11:18:36;3.30;;;2.10;;
6642;SDS011;3357;48.050;7.800;2023-04-28T11:21:20;2.23;;;2.13;;
6642;SDS011;3357;48.050;7.800;2023-04-28T11:23:47;2.43;;;1.80;;
6642;SDS011;3357;48.050;7.800;2023-04-28T11:26:13;3.33;;;2.10;;
6642;SDS011;3357;48.050;7.800;2023-04-28T11:28:56;3.40;;;2.13;;
6642;SDS011;3357;48.050;7.800;2023-04-28T11:31:23;1.93;;;1.83;;
6642;SDS011;3357;48.050;7.800;2023-04-28T11:34:06;3.23;;;2.00;;
6642;SDS011;3357;48.050;7.800;2023-04-28T11:36:36;2.47;;;1.90;;
6642;SDS011;3357;48.050;7.800;2023-04-28T11:39:03;2.07;;;1.87;;
6642;SDS011;3357;48.050;7.800;2023-04-28T11:41:29;1.47;;;1.43;;
6642;SDS011;3357;48.050;7.800;2023-04-28T11:43:55;1.53;;;1.43;;
6642;SDS011;3357;48.050;7.800;2023-04-28T11:46:21;1.43;;;1.40;;
6642;SDS011;3357;48.050;7.800;2023-04-28T11:48:48;5.40;;;2.00;;
6642;SDS011;3357;48.050;7.800;2023-04-28T11:51:30;5.50;;;1.87;;
6642;SDS011;3357;48.050;7.800;2023-04-28T11:53:57;2.10;;;1.90;;
6642;SDS011;3357;48.050;7.800;2023-04-28T11:56:22;1.70;;;1.60;;
6642;SDS011;3357;48.050;7.800;2023-04-28T12:01:49;2.33;;;1.63;;
6642;SDS011;3357;48.050;7.800;2023-04-28T12:04:25;1.93;;;1.70;;
6642;SDS011;3357;48.050;7.800;2023-04-28T12:06:57;2.13;;;1.90;;
6642;SDS011;3357;48.050;7.800;2023-04-28T12:09:27;6.90;;;1.77;;
6642;SDS011;3357;48.050;7.800;2023-04-28T12:11:53;2.17;;;1.50;;
6642;SDS011;3357;48.050;7.800;2023-04-28T12:14:20;2.67;;;1.83;;
6642;SDS011;3357;48.050;7.800;2023-04-28T12:16:46;2.77;;;1.50;;
6642;SDS011;3357;48.050;7.800;2023-04-28T12:19:12;2.17;;;1.87;;
6642;SDS011;3357;48.050;7.800;2023-04-28T12:21:39;3.00;;;1.63;;
6642;SDS011;3357;48.050;7.800;2023-04-28T12:24:20;3.93;;;1.40;;
6642;SDS011;3357;48.050;7.800;2023-04-28T12:26:47;2.33;;;1.60;;
6642;SDS011;3357;48.050;7.800;2023-04-28T12:32:01;3.67;;;1.67;;
6642;SDS011;3357;48.050;7.800;2023-04-28T12:34:26;1.73;;;1.63;;
6642;SDS011;3357;48.050;7.800;2023-04-28T12:36:53;3.60;;;1.80;;
6642;SDS011;3357;48.050;7.800;2023-04-28T12:39:18;4.13;;;1.80;;
6642;SDS011;3357;48.050;7.800;2023-04-28T12:41:44;1.50;;;1.40;;
6642;SDS011;3357;48.050;7.800;2023-04-28T12:44:09;1.53;;;1.43;;
6642;SDS011;3357;48.050;7.800;2023-04-28T12:46:35;1.47;;;1.37;;
6642;SDS011;3357;48.050;7.800;2023-04-28T12:49:01;1.57;;;1.47;;
6642;SDS011;3357;48.050;7.800;2023-04-28T12:51:26;1.23;;;1.20;;
6642;SDS011;3357;48.050;7.800;2023-04-28T12:53:53;1.50;;;1.40;;
6642;SDS011;3357;48.050;7.800;2023-04-28T12:56:18;1.47;;;1.30;;
6642;SDS011;3357;48.050;7.800;2023-04-28T12:58:44;1.63;;;1.50;;
6642;SDS011;3357;48.050;7.800;2023-04-28T13:01:09;1.53;;;1.20;;
6642;SDS011;3357;48.050;7.800;2023-04-28T13:03:34;1.90;;;1.40;;
6642;SDS011;3357;48.050;7.800;2023-04-28T13:05:59;1.80;;;1.20;;
6642;SDS011;3357;48.050;7.800;2023-04-28T13:08:25;1.00;;;1.00;;
6642;SDS011;3357;48.050;7.800;2023-04-28T13:10:50;1.40;;;1.30;;
6642;SDS011;3357;48.050;7.800;2023-04-28T13:13:15;2.37;;;1.23;;
6642;SDS011;3357;48.050;7.800;2023-04-28T13:15:41;1.50;;;1.40;;
6642;SDS011;3357;48.050;7.800;2023-04-28T13:18:06;1.57;;;1.00;;
6642;SDS011;3357;48.050;7.800;2023-04-28T13:20:31;1.43;;;1.00;;
6642;SDS011;3357;48.050;7.800;2023-04-28T13:22:57;3.60;;;1.07;;
6642;SDS011;3357;48.050;7.800;2023-04-28T13:25:22;3.80;;;1.00;;
6642;SDS011;3357;48.050;7.800;2023-04-28T13:27:47;1.30;;;1.20;;
6642;SDS011;3357;48.050;7.800;2023-04-28T13:30:12;1.20;;;1.20;;
6642;SDS011;3357;48.050;7.800;2023-04-28T13:32:38;2.10;;;1.10;;
6642;SDS011;3357;48.050;7.800;2023-04-28T13:35:03;1.57;;;1.00;;
6642;SDS011;3357;48.050;7.800;2023-04-28T13:37:29;1.70;;;1.10;;
6642;SDS011;3357;48.050;7.800;2023-04-28T13:39:55;1.13;;;1.03;;
6642;SDS011;3357;48.050;7.800;2023-04-28T13:42:22;1.20;;;1.10;;
6642;SDS011;3357;48.050;7.800;2023-04-28T13:44:47;1.90;;;1.17;;
6642;SDS011;3357;48.050;7.800;2023-04-28T13:47:13;4.00;;;1.10;;
6642;SDS011;3357;48.050;7.800;2023-04-28T13:49:38;1.20;;;1.20;;
6642;SDS011;3357;48.050;7.800;2023-04-28T13:52:04;3.23;;;1.10;;
6642;SDS011;3357;48.050;7.800;2023-04-28T13:54:29;3.23;;;1.03;;
6642;SDS011;3357;48.050;7.800;2023-04-28T13:56:55;1.00;;;0.90;;
6642;SDS011;3357;48.050;7.800;2023-04-28T13:59:20;1.07;;;0.97;;
6642;SDS011;3357;48.050;7.800;2023-04-28T14:01:45;2.37;;;1.30;;
6642;SDS011;3357;48.050;7.800;2023-04-28T14:04:11;2.80;;;1.20;;
6642;SDS011;3357;48.050;7.800;2023-04-28T14:06:36;9.43;;;1.47;;
6642;SDS011;3357;48.050;7.800;2023-04-28T14:09:02;1.10;;;1.10;;
6642;SDS011;3357;48.050;7.800;2023-04-28T14:11:27;1.07;;;0.97;;
6642;SDS011;3357;48.050;7.800;2023-04-28T14:13:52;1.10;;;1.00;;
6642;SDS011;3357;48.050;7.800;2023-04-28T14:16:18;1.57;;;1.10;;
6642;SDS011;3357;48.050;7.800;2023-04-28T14:18:43;1.90;;;1.20;;
6642;SDS011;3357;48.050;7.800;2023-04-28T14:21:08;4.40;;;1.37;;
6642;SDS011;3357;48.050;7.800;2023-04-28T14:23:34;2.60;;;1.17;;
6642;SDS011;3357;48.050;7.800;2023-04-28T14:25:59;1.30;;;1.00;;
6642;SDS011;3357;48.050;7.800;2023-04-28T14:28:24;1.87;;;1.13;;
6642;SDS011;3357;48.050;7.800;2023-04-28T14:30:51;1.80;;;1.07;;
6642;SDS011;3357;48.050;7.800;2023-04-28T14:33:17;1.13;;;1.03;;
6642;SDS011;3357;48.050;7.800;2023-04-28T14:35:43;1.63;;;1.10;;
6642;SDS011;3357;48.050;7.800;2023-04-28T14:38:08;1.80;;;0.80;;
6642;SDS011;3357;48.050;7.800;2023-04-28T14:40:33;1.03;;;0.90;;
6642;SDS011;3357;48.050;7.800;2023-04-28T14:42:58;1.13;;;0.90;;
6642;SDS011;3357;48.050;7.800;2023-04-28T14:45:24;2.20;;;0.87;;
6642;SDS011;3357;48.050;7.800;2023-04-28T14:47:50;0.70;;;0.70;;
6642;SDS011;3357;48.050;7.800;2023-04-28T14:50:15;0.90;;;0.80;;
6642;SDS011;3357;48.050;7.800;2023-04-28T14:52:40;0.70;;;0.70;;
6642;SDS011;3357;48.050;7.800;2023-04-28T14:55:06;3.57;;;0.80;;
6642;SDS011;3357;48.050;7.800;2023-04-28T14:57:32;1.10;;;0.80;;
6642;SDS011;3357;48.050;7.800;2023-04-28T14:59:59;0.73;;;0.73;;
6642;SDS011;3357;48.050;7.800;2023-04-28T15:02:24;0.90;;;0.90;;
6642;SDS011;3357;48.050;7.800;2023-04-28T15:04:53;0.70;;;0.70;;
6642;SDS011;3357;48.050;7.800;2023-04-28T15:07:20;1.07;;;0.70;;
6642;SDS011;3357;48.050;7.800;2023-04-28T15:09:46;1.57;;;1.07;;
6642;SDS011;3357;48.050;7.800;2023-04-28T15:12:11;2.00;;;0.73;;
6642;SDS011;3357;48.050;7.800;2023-04-28T15:14:37;0.60;;;0.60;;
6642;SDS011;3357;48.050;7.800;2023-04-28T15:17:02;0.83;;;0.63;;
6642;SDS011;3357;48.050;7.800;2023-04-28T15:19:28;1.03;;;0.70;;
6642;SDS011;3357;48.050;7.800;2023-04-28T15:21:54;1.13;;;0.70;;
6642;SDS011;3357;48.050;7.800;2023-04-28T15:24:19;4.10;;;1.43;;
6642;SDS011;3357;48.050;7.800;2023-04-28T15:26:45;0.80;;;0.73;;
6642;SDS011;3357;48.050;7.800;2023-04-28T15:29:10;1.17;;;0.70;;
6642;SDS011;3357;48.050;7.800;2023-04-28T15:31:36;2.20;;;0.80;;
6642;SDS011;3357;48.050;7.800;2023-04-28T15:34:02;1.00;;;0.90;;
6642;SDS011;3357;48.050;7.800;2023-04-28T15:36:27;2.70;;;0.83;;
6642;SDS011;3357;48.050;7.800;2023-04-28T15:38:53;0.90;;;0.90;;